Time;durP1;ratioP1;P1;durP2;ratioP2;P2;SDS_P1;SDS_P2;PMS_P1;PMS_P2;Temp;Humidity;BMP_temperature;BMP_pressure;BME280_temperature;BME280_humidity;BME280_pressure;Samples;Min_cycle;Max_cycle;Signal;HPM_P1;HPM_P2
2023/01/15 00:01:28;;;;;;;9.57;1.20;;;;;;;-146.73;100.00;56421.06;6156879;23;20075;-96
2023/01/15 00:03:55;;;;;;;8.48;1.10;;;;;;;-146.73;100.00;56421.06;6157473;23;20008;-96
2023/01/15 00:06:23;;;;;;;6.00;1.30;;;;;;;-146.73;100.00;56421.06;6159411;23;20040;-92
2023/01/15 00:08:49;;;;;;;4.97;0.80;;;;;;;-146.73;100.00;56421.06;6186848;23;20013;-96
2023/01/15 00:11:15;;;;;;;8.40;1.38;;;;;;;-146.73;100.00;56421.06;6158259;23;20063;-96
2023/01/15 00:13:41;;;;;;;9.93;1.50;;;;;;;-146.73;100.00;56421.06;6183321;23;20060;-94
2023/01/15 00:16:13;;;;;;;7.85;1.67;;;;;;;-146.73;100.00;56421.06;6156757;23;20036;-95
2023/01/15 00:18:41;;;;;;;9.30;1.45;;;;;;;-146.73;100.00;56421.06;6127157;23;20068;-95
2023/01/15 00:21:11;;;;;;;6.47;1.00;;;;;;;-146.73;100.00;56421.06;6126659;23;20085;-95
2023/01/15 00:29:10;;;;;;;7.55;1.30;;;;;;;-146.73;100.00;56421.06;6153889;23;20028;-93
2023/01/15 00:31:36;;;;;;;11.68;1.65;;;;;;;-146.73;100.00;56421.06;6127243;23;20456;-94
2023/01/15 00:34:01;;;;;;;8.40;1.10;;;;;;;-146.73;100.00;56421.06;6127939;23;20031;-94
2023/01/15 00:36:27;;;;;;;6.95;1.10;;;;;;;-146.73;100.00;56421.06;6127265;23;20002;-94
2023/01/15 00:38:53;;;;;;;5.22;1.15;;;;;;;-146.73;100.00;56421.06;6127443;23;20088;-93
2023/01/15 00:41:18;;;;;;;8.57;1.00;;;;;;;-146.73;100.00;56421.06;6127875;23;20056;-94
2023/01/15 00:43:44;;;;;;;13.63;1.30;;;;;;;-146.73;100.00;56421.06;6153838;23;20055;-94
2023/01/15 00:46:09;;;;;;;15.38;1.52;;;;;;;-146.73;100.00;56421.06;6127695;23;20005;-95
2023/01/15 00:48:35;;;;;;;10.98;1.00;;;;;;;-146.73;100.00;56421.06;6153306;23;20340;-95
2023/01/15 00:51:02;;;;;;;7.88;1.10;;;;;;;-146.73;100.00;56421.06;6153333;23;20506;-95
2023/01/15 00:53:27;;;;;;;10.93;1.35;;;;;;;-146.73;100.00;56421.06;6153169;23;20424;-95
2023/01/15 00:55:53;;;;;;;7.22;1.05;;;;;;;-146.73;100.00;56421.06;6128046;23;20077;-95
2023/01/15 00:58:19;;;;;;;7.50;1.08;;;;;;;-146.73;100.00;56421.06;6127638;23;20014;-94
2023/01/15 01:00:44;;;;;;;6.78;1.50;;;;;;;-146.73;100.00;56421.06;6127420;23;20120;-94
2023/01/15 01:03:10;;;;;;;5.00;0.85;;;;;;;-146.73;100.00;56421.06;6126750;23;20487;-94
2023/01/15 01:05:38;;;;;;;8.27;0.70;;;;;;;-146.73;100.00;56421.06;6127441;23;20009;-95
2023/01/15 01:08:03;;;;;;;12.05;1.08;;;;;;;-146.73;100.00;56421.06;6127486;23;20432;-94
2023/01/15 01:10:29;;;;;;;9.52;1.20;;;;;;;-146.73;100.00;56421.06;6152864;23;20037;-94
2023/01/15 01:12:55;;;;;;;6.40;1.10;;;;;;;-146.73;100.00;56421.06;6153045;23;19997;-94
2023/01/15 01:15:25;;;;;;;6.28;1.17;;;;;;;-146.73;100.00;56421.06;6127661;23;20017;-94
2023/01/15 01:17:50;;;;;;;5.85;1.25;;;;;;;-146.73;100.00;56421.06;6173521;23;20021;-94
2023/01/15 01:20:17;;;;;;;7.15;0.90;;;;;;;-146.73;100.00;56421.06;6156938;23;20047;-94
2023/01/15 01:22:42;;;;;;;4.75;1.17;;;;;;;-146.73;100.00;56421.06;6156798;23;20182;-92
2023/01/15 01:25:09;;;;;;;6.70;1.15;;;;;;;-146.73;100.00;56421.06;6156140;23;20015;-94
2023/01/15 01:27:35;;;;;;;9.85;1.23;;;;;;;-146.73;100.00;56421.06;6155627;23;20087;-93
2023/01/15 01:30:01;;;;;;;8.43;0.82;;;;;;;-146.73;100.00;56421.06;6156325;23;20056;-94
2023/01/15 01:32:26;;;;;;;7.55;1.00;;;;;;;-146.73;100.00;56421.06;6182054;23;20013;-93
2023/01/15 01:34:52;;;;;;;10.15;1.00;;;;;;;-146.73;100.00;56421.06;6152386;23;20009;-95
2023/01/15 01:37:17;;;;;;;6.53;0.93;;;;;;;-146.73;100.00;56421.06;6176568;23;20016;-94
2023/01/15 01:39:43;;;;;;;6.05;0.93;;;;;;;-146.73;100.00;56421.06;6151888;23;20036;-94
2023/01/15 01:42:15;;;;;;;7.28;0.98;;;;;;;-146.73;100.00;56421.06;6178123;23;20012;-94
2023/01/15 01:44:44;;;;;;;7.40;0.95;;;;;;;-146.73;100.00;56421.06;6153032;23;20033;-93
2023/01/15 01:47:19;;;;;;;8.43;1.15;;;;;;;-146.73;100.00;56421.06;6151900;23;20124;-94
2023/01/15 01:49:46;;;;;;;8.60;0.93;;;;;;;-146.73;100.00;56421.06;6178894;23;20012;-94
2023/01/15 01:52:22;;;;;;;11.27;0.95;;;;;;;-146.73;100.00;56421.06;6153144;23;20009;-94
2023/01/15 01:54:49;;;;;;;12.93;1.90;;;;;;;-146.73;100.00;56421.06;6152520;23;20008;-94
2023/01/15 01:57:16;;;;;;;7.38;1.13;;;;;;;-146.73;100.00;56421.06;6151748;23;20017;-95
2023/01/15 01:59:42;;;;;;;8.57;0.93;;;;;;;-146.73;100.00;56421.06;6150352;23;20021;-94
2023/01/15 02:02:08;;;;;;;7.80;1.00;;;;;;;-146.73;100.00;56421.06;6150209;23;20009;-94
2023/01/15 02:04:35;;;;;;;4.07;0.63;;;;;;;-146.73;100.00;56421.06;6178035;23;20324;-94
2023/01/15 02:07:02;;;;;;;10.38;1.00;;;;;;;-146.73;100.00;56421.06;6151311;23;20005;-94
2023/01/15 02:09:27;;;;;;;7.22;0.80;;;;;;;-146.73;100.00;56421.06;6151877;23;20008;-95
2023/01/15 02:11:59;;;;;;;9.85;1.00;;;;;;;-146.73;100.00;56421.06;6153947;23;20005;-94
2023/01/15 02:14:35;;;;;;;8.23;0.98;;;;;;;-146.73;100.00;56421.06;6155524;23;20012;-94
2023/01/15 02:17:31;;;;;;;6.53;1.30;;;;;;;-146.73;100.00;56421.06;6155358;23;20039;-95
2023/01/15 02:20:27;;;;;;;7.43;1.45;;;;;;;-146.73;100.00;56421.06;6172431;23;20043;-95
2023/01/15 02:23:08;;;;;;;4.97;0.90;;;;;;;-146.73;100.00;56421.06;6155850;23;20404;-94
2023/01/15 02:25:39;;;;;;;8.68;0.90;;;;;;;-146.73;100.00;56421.06;6155889;23;20067;-94
2023/01/15 02:28:27;;;;;;;7.25;1.27;;;;;;;-146.73;100.00;56421.06;6154942;23;20005;-94
2023/01/15 02:31:01;;;;;;;12.10;1.20;;;;;;;-146.73;100.00;56421.06;6155866;23;20016;-94
2023/01/15 02:33:39;;;;;;;5.55;0.90;;;;;;;-146.73;100.00;56421.06;6155629;23;20040;-94
2023/01/15 02:36:09;;;;;;;8.00;1.02;;;;;;;-146.73;100.00;56421.06;6156299;23;20028;-93
2023/01/15 02:38:38;;;;;;;6.47;0.88;;;;;;;-146.73;100.00;56421.06;6155928;23;19997;-94
2023/01/15 02:41:14;;;;;;;6.57;1.38;;;;;;;-146.73;100.00;56421.06;6156731;23;20455;-94
2023/01/15 02:43:42;;;;;;;6.63;1.13;;;;;;;-146.73;100.00;56421.06;6155306;23;20001;-94
2023/01/15 02:46:08;;;;;;;7.45;1.50;;;;;;;-146.73;100.00;56421.06;6155497;23;20013;-94
2023/01/15 02:48:37;;;;;;;8.75;0.95;;;;;;;-146.73;100.00;56421.06;6156080;23;20032;-94
2023/01/15 02:51:10;;;;;;;7.82;0.65;;;;;;;-146.73;100.00;56421.06;6156780;23;20460;-93
2023/01/15 02:53:38;;;;;;;4.60;0.70;;;;;;;-146.73;100.00;56421.06;6155295;23;20013;-94
2023/01/15 02:56:11;;;;;;;6.63;0.90;;;;;;;-146.73;100.00;56421.06;6156169;23;20108;-93
2023/01/15 02:58:40;;;;;;;6.32;1.23;;;;;;;-146.73;100.00;56421.06;6154461;23;20013;-94
2023/01/15 03:04:38;;;;;;;5.85;0.77;;;;;;;-146.73;100.00;56421.06;6147742;23;20225;-94
2023/01/15 03:07:23;;;;;;;7.35;1.20;;;;;;;-146.73;100.00;56421.06;6090686;23;20026;-94
2023/01/15 03:09:49;;;;;;;7.63;1.30;;;;;;;-146.73;100.00;56421.06;6093649;23;20010;-93
2023/01/15 03:12:29;;;;;;;6.85;1.40;;;;;;;-146.73;100.00;56421.06;6118596;23;20013;-91
2023/01/15 03:16:33;;;;;;;8.93;1.20;;;;;;;-146.73;100.00;56421.06;6119223;23;20489;-92
2023/01/15 03:17:59;;;;;;;6.18;0.85;;;;;;;-146.73;100.00;56421.06;6117426;23;20746;-94
2023/01/15 03:20:28;;;;;;;6.53;1.00;;;;;;;-146.73;100.00;56421.06;6093585;23;20483;-94
2023/01/15 03:23:00;;;;;;;5.20;0.85;;;;;;;-146.73;100.00;56421.06;6093187;23;20010;-93
2023/01/15 03:25:32;;;;;;;6.85;1.00;;;;;;;-146.73;100.00;56421.06;6094165;23;20017;-93
2023/01/15 03:28:02;;;;;;;8.35;1.10;;;;;;;-146.73;100.00;56421.06;6117976;23;20010;-93
2023/01/15 03:30:28;;;;;;;8.30;0.98;;;;;;;-146.73;100.00;56421.06;6095061;23;20005;-93
2023/01/15 03:32:54;;;;;;;5.55;0.95;;;;;;;-146.73;100.00;56421.06;6093330;23;20073;-94
2023/01/15 03:35:57;;;;;;;7.65;1.08;;;;;;;-146.73;100.00;56421.06;6095172;23;20030;-93
2023/01/15 03:38:36;;;;;;;6.45;1.13;;;;;;;-146.73;100.00;56421.06;6120458;23;20045;-93
2023/01/15 03:41:21;;;;;;;6.35;1.00;;;;;;;-146.73;100.00;56421.06;6096845;23;20046;-93
2023/01/15 03:43:57;;;;;;;4.95;0.70;;;;;;;-146.73;100.00;56421.06;6134181;23;20059;-94
2023/01/15 03:46:57;;;;;;;4.68;0.82;;;;;;;-146.73;100.00;56421.06;6152586;23;20055;-94
2023/01/15 03:49:41;;;;;;;6.70;1.10;;;;;;;-146.73;100.00;56421.06;6154357;23;20008;-94
2023/01/15 03:52:17;;;;;;;7.47;1.08;;;;;;;-146.73;100.00;56421.06;6154061;23;20013;-93
2023/01/15 03:54:50;;;;;;;3.22;0.77;;;;;;;-146.73;100.00;56421.06;6152115;23;20447;-94
2023/01/15 03:57:26;;;;;;;;;;;;;;;-146.73;100.00;56421.06;6152939;23;20008;-93
2023/01/15 04:00:08;;;;;;;5.88;0.68;;;;;;;-146.73;100.00;56421.06;6151495;23;19912;-93
2023/01/15 04:02:35;;;;;;;6.53;0.75;;;;;;;-146.73;100.00;56421.06;6149928;23;20022;-93
2023/01/15 04:05:02;;;;;;;6.90;0.98;;;;;;;-146.73;100.00;56421.06;6152316;23;20012;-93
2023/01/15 04:07:29;;;;;;;8.10;1.27;;;;;;;-146.73;100.00;56421.06;6151761;23;20013;-93
2023/01/15 04:09:55;;;;;;;5.32;0.82;;;;;;;-146.73;100.00;56421.06;6152690;23;20498;-92
2023/01/15 04:12:23;;;;;;;9.63;1.10;;;;;;;-146.73;100.00;56421.06;6152217;23;20009;-93
2023/01/15 04:14:49;;;;;;;8.35;1.27;;;;;;;-146.73;100.00;56421.06;6151524;23;20016;-94
2023/01/15 04:17:14;;;;;;;5.82;0.80;;;;;;;-146.73;100.00;56421.06;6151785;23;20041;-93
2023/01/15 04:19:43;;;;;;;5.82;0.98;;;;;;;-146.73;100.00;56421.06;6152179;23;19998;-94
2023/01/15 04:22:10;;;;;;;6.20;0.80;;;;;;;-146.73;100.00;56421.06;6152840;23;20013;-94
2023/01/15 04:24:37;;;;;;;6.63;1.00;;;;;;;-146.73;100.00;56421.06;6152698;23;20005;-94
2023/01/15 04:27:02;;;;;;;5.90;0.90;;;;;;;-146.73;100.00;56421.06;6154003;23;20009;-93
2023/01/15 04:29:27;;;;;;;6.47;0.90;;;;;;;-146.73;100.00;56421.06;6152865;23;20001;-93
2023/01/15 04:31:56;;;;;;;5.03;0.90;;;;;;;-146.73;100.00;56421.06;6153235;23;20013;-94
2023/01/15 04:34:26;;;;;;;6.95;0.80;;;;;;;-146.73;100.00;56421.06;6152359;23;20016;-94
2023/01/15 04:36:52;;;;;;;6.20;0.90;;;;;;;-146.73;100.00;56421.06;6152753;23;20009;-94
2023/01/15 04:39:17;;;;;;;6.90;0.90;;;;;;;-146.73;100.00;56421.06;6152731;23;20388;-93
2023/01/15 04:44:28;;;;;;;7.43;1.10;;;;;;;-146.73;100.00;56421.06;6153816;23;20012;-93
2023/01/15 04:46:54;;;;;;;9.98;0.90;;;;;;;-146.73;100.00;56421.06;6152884;23;20031;-93
2023/01/15 04:49:20;;;;;;;4.72;0.68;;;;;;;-146.73;100.00;56421.06;6153155;23;20013;-95
2023/01/15 04:51:48;;;;;;;7.00;0.70;;;;;;;-146.73;100.00;56421.06;6152691;23;20005;-94
2023/01/15 04:54:16;;;;;;;3.95;0.70;;;;;;;-146.73;100.00;56421.06;6152247;23;20009;-93
2023/01/15 04:56:44;;;;;;;6.40;0.82;;;;;;;-146.73;100.00;56421.06;6154735;23;20010;-94
2023/01/15 04:59:12;;;;;;;6.10;0.77;;;;;;;-146.73;100.00;56421.06;6154119;23;20430;-94
2023/01/15 05:01:39;;;;;;;6.60;1.33;;;;;;;-146.73;100.00;56421.06;6153164;23;20530;-94
2023/01/15 05:04:11;;;;;;;6.70;0.90;;;;;;;-146.73;100.00;56421.06;6151642;23;20060;-94
2023/01/15 05:06:36;;;;;;;4.55;0.40;;;;;;;-146.73;100.00;56421.06;6151693;23;20024;-94
2023/01/15 05:09:03;;;;;;;6.53;0.90;;;;;;;-146.73;100.00;56421.06;6152071;23;20412;-94
2023/01/15 05:11:29;;;;;;;6.85;0.60;;;;;;;-146.73;100.00;56421.06;6151221;23;20009;-94
2023/01/15 05:13:55;;;;;;;7.22;0.55;;;;;;;-146.73;100.00;56421.06;6150950;23;20009;-94
2023/01/15 05:16:25;;;;;;;3.85;0.70;;;;;;;-146.73;100.00;56421.06;6152340;23;20084;-93
2023/01/15 05:18:53;;;;;;;9.82;1.00;;;;;;;-146.73;100.00;56421.06;6153681;23;20299;-94
2023/01/15 05:21:24;;;;;;;4.50;0.70;;;;;;;-146.73;100.00;56421.06;6151290;23;20006;-93
2023/01/15 05:23:52;;;;;;;3.58;0.55;;;;;;;-146.73;100.00;56421.06;6153686;23;20009;-94
2023/01/15 05:26:18;;;;;;;3.83;0.82;;;;;;;-146.73;100.00;56421.06;6151687;23;20084;-93
2023/01/15 05:28:44;;;;;;;5.57;1.45;;;;;;;-146.73;100.00;56421.06;6152418;23;20338;-94
2023/01/15 05:31:15;;;;;;;5.13;0.90;;;;;;;-146.73;100.00;56421.06;6153412;23;20044;-93
2023/01/15 05:33:44;;;;;;;4.63;0.95;;;;;;;-146.73;100.00;56421.06;6152039;23;20012;-94
2023/01/15 05:36:12;;;;;;;6.25;0.63;;;;;;;-146.73;100.00;56421.06;6151968;23;20009;-94
2023/01/15 05:38:38;;;;;;;5.00;0.80;;;;;;;-146.73;100.00;56421.06;6152015;23;20005;-94
2023/01/15 05:43:56;;;;;;;2.67;0.70;;;;;;;-146.73;100.00;56421.06;6153763;23;20016;-94
2023/01/15 05:46:22;;;;;;;6.03;0.80;;;;;;;-146.73;100.00;56421.06;6153559;23;20005;-94
2023/01/15 05:48:48;;;;;;;4.68;0.57;;;;;;;-146.73;100.00;56421.06;6151780;23;20020;-94
2023/01/15 05:51:22;;;;;;;7.97;0.68;;;;;;;-146.73;100.00;56421.06;6153662;23;20010;-94
2023/01/15 05:58:12;;;;;;;;;;;;;;;;;;;;;
2023/01/15 06:00:45;;;;;;;4.18;0.65;;;;;;;-146.73;100.00;56421.06;6077823;23;20093;-94
2023/01/15 06:03:30;;;;;;;7.97;1.00;;;;;;;-146.73;100.00;56421.06;6148893;23;20448;-94
2023/01/15 06:13:03;;;;;;;3.83;0.80;;;;;;;-146.73;100.00;56421.06;6160757;23;20067;-95
2023/01/15 06:19:11;;;;;;;4.10;0.60;;;;;;;-146.73;100.00;56421.06;6163254;23;20093;-95
2023/01/15 06:22:13;;;;;;;5.70;0.70;;;;;;;-146.73;100.00;56421.06;6159220;23;20010;-95
2023/01/15 06:24:38;;;;;;;4.15;0.60;;;;;;;-146.73;100.00;56421.06;6160201;23;20012;-96
2023/01/15 06:27:04;;;;;;;4.35;0.60;;;;;;;-146.73;100.00;56421.06;6161557;23;20009;-96
2023/01/15 06:29:30;;;;;;;5.78;0.88;;;;;;;-146.73;100.00;56421.06;6162473;23;20012;-96
2023/01/15 06:31:55;;;;;;;5.95;0.90;;;;;;;-146.73;100.00;56421.06;6159583;23;20610;-95
2023/01/15 06:34:22;;;;;;;2.97;0.60;;;;;;;-146.73;100.00;56421.06;6163017;23;20025;-95
2023/01/15 06:36:47;;;;;;;11.38;1.27;;;;;;;-146.73;100.00;56421.06;6161034;23;20498;-96
2023/01/15 06:39:13;;;;;;;7.32;1.33;;;;;;;-146.73;100.00;56421.06;6158725;23;20036;-96
2023/01/15 06:47:19;;;;;;;6.97;1.33;;;;;;;-146.73;100.00;56421.06;6157721;23;20696;-95
2023/01/15 06:49:45;;;;;;;12.68;2.05;;;;;;;-146.73;100.00;56421.06;6154599;23;20017;-96
2023/01/15 06:52:11;;;;;;;7.40;1.92;;;;;;;-146.73;100.00;56421.06;6155103;23;20060;-96
2023/01/15 06:54:37;;;;;;;6.97;1.70;;;;;;;-146.73;100.00;56421.06;6155782;23;20021;-96
2023/01/15 06:57:02;;;;;;;6.57;1.65;;;;;;;-146.73;100.00;56421.06;6156457;23;20009;-96
2023/01/15 06:59:32;;;;;;;9.63;1.92;;;;;;;-146.73;100.00;56421.06;6154572;23;20009;-96
2023/01/15 07:01:58;;;;;;;18.23;2.65;;;;;;;-146.73;100.00;56421.06;6154545;23;20012;-96
2023/01/15 07:04:37;;;;;;;10.30;2.25;;;;;;;-146.73;100.00;56421.06;6155826;23;20040;-96
2023/01/15 07:07:03;;;;;;;9.38;2.28;;;;;;;-146.73;100.00;56421.06;6160666;23;20001;-96
2023/01/15 07:09:28;;;;;;;40.17;5.32;;;;;;;-146.73;100.00;56421.06;6159212;23;20061;-96
2023/01/15 07:11:54;;;;;;;18.80;2.63;;;;;;;-146.73;100.00;56421.06;6161571;23;20021;-96
2023/01/15 07:14:24;;;;;;;9.57;2.28;;;;;;;-146.73;100.00;56421.06;6165206;23;20033;-96
2023/01/15 07:16:55;;;;;;;31.10;3.25;;;;;;;-146.73;100.00;56421.06;6164866;23;20009;-96
2023/01/15 07:19:21;;;;;;;8.63;1.58;;;;;;;-146.73;100.00;56421.06;6163690;23;20043;-96
2023/01/15 07:21:53;;;;;;;18.67;2.25;;;;;;;-146.73;100.00;56421.06;6161505;23;20343;-96
2023/01/15 07:24:19;;;;;;;38.40;3.35;;;;;;;-146.73;100.00;56421.06;6164565;23;20063;-96
2023/01/15 07:26:46;;;;;;;12.65;2.05;;;;;;;-146.73;100.00;56421.06;6168661;23;20036;-96
2023/01/15 07:29:13;;;;;;;7.22;1.20;;;;;;;-146.73;100.00;56421.06;6167359;23;20419;-95
2023/01/15 07:31:46;;;;;;;4.88;1.02;;;;;;;-146.73;100.00;56421.06;6157709;23;20029;-96
2023/01/15 07:34:12;;;;;;;5.97;1.30;;;;;;;-146.73;100.00;56421.06;6165104;23;20331;-95
2023/01/15 07:36:37;;;;;;;7.32;1.40;;;;;;;-146.73;100.00;56421.06;6164864;23;20013;-95
2023/01/15 07:39:05;;;;;;;108.43;9.45;;;;;;;-146.73;100.00;56421.06;6161181;23;20017;-96
2023/01/15 07:49:47;;;;;;;6.93;1.63;;;;;;;-146.73;100.00;56421.06;6161623;23;20020;-96
2023/01/15 07:52:19;;;;;;;26.80;2.55;;;;;;;-146.73;100.00;56421.06;6158663;23;20009;-96
2023/01/15 07:54:46;;;;;;;11.05;1.77;;;;;;;-146.73;100.00;56421.06;6159855;23;20021;-96
2023/01/15 07:57:14;;;;;;;7.13;1.45;;;;;;;-146.73;100.00;56421.06;6162864;23;20013;-96
2023/01/15 07:59:40;;;;;;;6.88;1.17;;;;;;;-146.73;100.00;56421.06;6163093;23;20018;-96
2023/01/15 08:02:05;;;;;;;3.70;0.73;;;;;;;-146.73;100.00;56421.06;6161803;23;20080;-96
2023/01/15 08:04:32;;;;;;;4.15;0.85;;;;;;;-146.73;100.00;56421.06;6158664;23;20355;-96
2023/01/15 08:07:03;;;;;;;5.68;0.75;;;;;;;-146.73;100.00;56421.06;6156963;23;20044;-96
2023/01/15 08:09:29;;;;;;;3.67;0.63;;;;;;;-146.73;100.00;56421.06;6156133;23;20025;-96
2023/01/15 08:15:12;;;;;;;3.33;0.52;;;;;;;-146.73;100.00;56421.06;6156731;23;20035;-96
2023/01/15 08:17:39;;;;;;;4.72;0.73;;;;;;;-146.73;100.00;56421.06;6101400;23;20055;-95
2023/01/15 08:21:01;;;;;;;3.05;0.60;;;;;;;-146.73;100.00;56421.06;6101291;23;20010;-96
2023/01/15 08:23:26;;;;;;;2.42;0.57;;;;;;;-146.73;100.00;56421.06;6099519;23;20013;-95
2023/01/15 08:25:52;;;;;;;4.95;0.80;;;;;;;-146.73;100.00;56421.06;6099020;23;20014;-96
2023/01/15 08:28:18;;;;;;;2.10;0.43;;;;;;;-146.73;100.00;56421.06;6099413;23;20014;-96
2023/01/15 08:30:43;;;;;;;2.72;0.80;;;;;;;-146.73;100.00;56421.06;6099170;23;20597;-96
2023/01/15 08:33:14;;;;;;;2.95;0.50;;;;;;;-146.73;100.00;56421.06;6099085;23;20010;-96
2023/01/15 08:35:40;;;;;;;3.45;0.40;;;;;;;-146.73;100.00;56421.06;6099633;23;20010;-96
2023/01/15 08:38:06;;;;;;;2.78;0.40;;;;;;;-146.73;100.00;56421.06;6099185;23;20014;-96
2023/01/15 08:40:32;;;;;;;1.38;0.30;;;;;;;-146.73;100.00;56421.06;6100350;23;20416;-96
2023/01/15 08:42:57;;;;;;;3.35;0.60;;;;;;;-146.73;100.00;56421.06;6099943;23;20056;-96
2023/01/15 08:45:23;;;;;;;2.75;0.52;;;;;;;-146.73;100.00;56421.06;6100195;23;20016;-96
2023/01/15 08:47:49;;;;;;;2.65;0.57;;;;;;;-146.73;100.00;56421.06;6101164;23;20006;-96
2023/01/15 08:50:14;;;;;;;1.58;0.35;;;;;;;-146.73;100.00;56421.06;6103118;23;20006;-96
2023/01/15 08:52:40;;;;;;;1.75;0.50;;;;;;;-146.73;100.00;56421.06;6101253;23;20021;-96
2023/01/15 08:55:09;;;;;;;1.73;0.43;;;;;;;-146.73;100.00;56421.06;6144588;23;20430;-96
2023/01/15 08:57:36;;;;;;;3.55;0.57;;;;;;;-146.73;100.00;56421.06;6155736;23;20009;-95
2023/01/15 09:00:03;;;;;;;4.00;0.60;;;;;;;-146.73;100.00;56421.06;6155798;23;20025;-95
2023/01/15 09:02:28;;;;;;;2.85;0.50;;;;;;;-146.73;100.00;56421.06;6155343;23;20064;-95
2023/01/15 09:04:56;;;;;;;2.83;0.60;;;;;;;-146.73;100.00;56421.06;6156444;23;20045;-94
2023/01/15 09:07:31;;;;;;;2.65;0.63;;;;;;;-146.73;100.00;56421.06;6157810;23;20031;-96
2023/01/15 09:10:17;;;;;;;0.98;0.20;;;;;;;-146.73;100.00;56421.06;6159269;23;20006;-94
2023/01/15 09:12:46;;;;;;;2.97;0.40;;;;;;;-146.73;100.00;56421.06;6158366;23;20096;-95
2023/01/15 09:15:11;;;;;;;2.83;0.20;;;;;;;-146.73;100.00;56421.06;6160421;23;20009;-95
2023/01/15 09:17:40;;;;;;;0.93;0.20;;;;;;;-146.73;100.00;56421.06;6158625;23;20059;-96
2023/01/15 09:20:11;;;;;;;0.95;0.10;;;;;;;-146.73;100.00;56421.06;6162048;23;20001;-96
2023/01/15 09:22:37;;;;;;;0.85;0.22;;;;;;;-146.73;100.00;56421.06;6163955;23;20001;-95
2023/01/15 09:25:18;;;;;;;2.25;0.40;;;;;;;-146.73;100.00;56421.06;6164941;23;20085;-96
2023/01/15 09:27:45;;;;;;;1.63;0.40;;;;;;;-146.73;100.00;56421.06;6166115;23;20017;-96
2023/01/15 09:30:23;;;;;;;0.77;0.17;;;;;;;-146.73;100.00;56421.06;6164552;23;20009;-95
2023/01/15 09:32:53;;;;;;;2.70;0.50;;;;;;;-146.73;100.00;56421.06;6164082;23;20021;-95
2023/01/15 09:35:21;;;;;;;2.60;0.50;;;;;;;-146.73;100.00;56421.06;6166213;23;20020;-95
2023/01/15 09:38:12;;;;;;;1.15;0.30;;;;;;;-146.73;100.00;56421.06;6164999;23;20001;-96
2023/01/15 09:41:06;;;;;;;3.50;0.28;;;;;;;-146.73;100.00;56421.06;6167000;23;20024;-96
2023/01/15 09:44:06;;;;;;;2.50;0.47;;;;;;;-146.73;100.00;56421.06;6168642;23;20001;-96
2023/01/15 09:47:02;;;;;;;1.90;0.43;;;;;;;-146.73;100.00;56421.06;6167313;23;19998;-96
2023/01/15 09:50:06;;;;;;;3.33;0.50;;;;;;;-146.73;100.00;56421.06;6166467;23;20005;-96
2023/01/15 09:52:57;;;;;;;3.10;0.80;;;;;;;-146.73;100.00;56421.06;6163190;23;20001;-95
2023/01/15 09:55:35;;;;;;;2.40;0.52;;;;;;;-146.73;100.00;56421.06;6163537;23;20041;-96
2023/01/15 09:58:10;;;;;;;4.40;0.75;;;;;;;-146.73;100.00;56421.06;6161324;23;20028;-95
2023/01/15 10:00:43;;;;;;;2.75;0.75;;;;;;;-146.73;100.00;56421.06;6159753;23;20063;-95
2023/01/15 10:03:33;;;;;;;1.20;0.30;;;;;;;-146.73;100.00;56421.06;6162794;23;20037;-95
2023/01/15 10:06:14;;;;;;;1.88;0.47;;;;;;;-146.73;100.00;56421.06;6107305;23;20018;-95
2023/01/15 10:09:21;;;;;;;6.18;1.40;;;;;;;-146.73;100.00;56421.06;6136469;23;19997;-95
2023/01/15 10:15:23;;;;;;;3.55;0.70;;;;;;;-146.73;100.00;56421.06;6136231;23;20017;-94
2023/01/15 10:17:57;;;;;;;5.38;1.00;;;;;;;-146.73;100.00;56421.06;6108233;23;20002;-96
2023/01/15 10:21:13;;;;;;;3.22;0.90;;;;;;;-146.73;100.00;56421.06;6111855;23;20037;-95
2023/01/15 10:24:25;;;;;;;9.23;1.00;;;;;;;-146.73;100.00;56421.06;6111587;23;20009;-96
2023/01/15 10:31:00;;;;;;;6.40;1.30;;;;;;;-146.73;100.00;56421.06;6140113;23;20024;-96
2023/01/15 10:33:58;;;;;;;6.53;1.50;;;;;;;-146.73;100.00;56421.06;6117990;23;20013;-96
2023/01/15 10:36:35;;;;;;;6.07;1.40;;;;;;;-146.73;100.00;56421.06;6095560;23;20005;-96
2023/01/15 10:42:31;;;;;;;7.63;1.45;;;;;;;-146.73;100.00;56421.06;6136575;23;20025;-94
2023/01/15 10:45:14;;;;;;;7.68;1.67;;;;;;;-146.73;100.00;56421.06;6110729;23;20085;-96
2023/01/15 10:48:03;;;;;;;7.38;1.58;;;;;;;-146.73;100.00;56421.06;6112075;23;20673;-96
2023/01/15 10:50:29;;;;;;;6.03;1.13;;;;;;;-146.73;100.00;56421.06;6124326;23;20033;-89
2023/01/15 10:53:35;;;;;;;6.32;1.27;;;;;;;-146.73;100.00;56421.06;6150747;23;20009;-90
2023/01/15 10:56:15;;;;;;;4.20;1.00;;;;;;;-146.73;100.00;56421.06;6140005;23;20017;-94
2023/01/15 10:58:52;;;;;;;5.75;0.85;;;;;;;-146.73;100.00;56421.06;6147320;23;20016;-92
2023/01/15 11:01:28;;;;;;;3.30;0.70;;;;;;;-146.73;100.00;56421.06;6149133;23;20104;-94
2023/01/15 11:04:18;;;;;;;4.07;0.82;;;;;;;-146.73;100.00;56421.06;6148261;23;20087;-93
2023/01/15 11:06:46;;;;;;;3.60;0.80;;;;;;;-146.73;100.00;56421.06;6147631;23;20064;-93
2023/01/15 11:09:32;;;;;;;4.68;0.90;;;;;;;-146.73;100.00;56421.06;6147750;23;20100;-92
2023/01/15 11:20:55;;;;;;;5.18;0.70;;;;;;;-146.73;100.00;56421.06;6150046;23;20075;-93
2023/01/15 11:23:22;;;;;;;3.87;0.80;;;;;;;-146.73;100.00;56421.06;6149584;23;20040;-93
2023/01/15 11:26:00;;;;;;;2.95;0.70;;;;;;;-146.73;100.00;56421.06;6149604;23;20470;-93
2023/01/15 11:28:39;;;;;;;2.15;0.50;;;;;;;-146.73;100.00;56421.06;6149990;23;20045;-92
2023/01/15 11:31:15;;;;;;;4.18;0.70;;;;;;;-146.73;100.00;56421.06;6147922;23;20021;-94
2023/01/15 11:34:04;;;;;;;5.07;0.77;;;;;;;-146.73;100.00;56421.06;6148149;23;20266;-93
2023/01/15 11:36:31;;;;;;;3.55;0.88;;;;;;;-146.73;100.00;56421.06;6149535;23;20022;-92
2023/01/15 11:39:03;;;;;;;5.40;0.88;;;;;;;-146.73;100.00;56421.06;6148439;23;20005;-92
2023/01/15 11:53:13;;;;;;;10.02;1.80;;;;;;;-146.73;100.00;56421.06;6179096;23;20020;-93
2023/01/15 11:55:59;;;;;;;6.57;1.65;;;;;;;-146.73;100.00;56421.06;6151837;23;20008;-93
2023/01/15 11:58:32;;;;;;;7.13;1.90;;;;;;;-146.73;100.00;56421.06;6152094;23;20032;-92
2023/01/15 12:00:59;;;;;;;8.93;2.00;;;;;;;-146.73;100.00;56421.06;6153789;23;20047;-93
2023/01/15 12:03:30;;;;;;;11.18;2.10;;;;;;;-146.73;100.00;56421.06;6153045;23;20346;-94
2023/01/15 12:06:01;;;;;;;10.02;2.00;;;;;;;-146.73;100.00;56421.06;6152833;23;20338;-93
2023/01/15 12:08:56;;;;;;;8.50;1.77;;;;;;;-146.73;100.00;56421.06;6153534;23;20024;-94
2023/01/15 12:11:58;;;;;;;7.45;2.15;;;;;;;-146.73;100.00;56421.06;6152720;23;20041;-93
2023/01/15 12:15:05;;;;;;;10.18;2.60;;;;;;;-146.73;100.00;56421.06;6007275;23;20015;-94
2023/01/15 12:18:03;;;;;;;8.88;2.97;;;;;;;-146.73;100.00;56421.06;6036352;23;20018;-94
2023/01/15 12:20:58;;;;;;;12.85;3.60;;;;;;;-146.73;100.00;56421.06;6008806;23;20023;-94
2023/01/15 12:23:54;;;;;;;15.13;4.32;;;;;;;-146.73;100.00;56421.06;6009090;23;20007;-93
2023/01/15 12:26:24;;;;;;;13.90;4.43;;;;;;;-146.73;100.00;56421.06;6008940;23;20018;-94
2023/01/15 12:32:47;;;;;;;15.68;5.60;;;;;;;-146.73;100.00;56421.06;6034812;23;20589;-94
2023/01/15 12:35:55;;;;;;;13.95;4.70;;;;;;;-146.73;100.00;56421.06;6006346;23;20090;-93
2023/01/15 12:38:39;;;;;;;12.38;5.03;;;;;;;-146.73;100.00;56421.06;6009131;23;20048;-94
2023/01/15 12:47:40;;;;;;;12.15;3.58;;;;;;;-146.73;100.00;56421.06;6031289;23;20479;-93
2023/01/15 12:57:59;;;;;;;12.70;3.80;;;;;;;-146.73;100.00;56421.06;6191727;23;20123;-95
2023/01/15 13:00:46;;;;;;;12.70;4.13;;;;;;;-146.73;100.00;56421.06;6181470;23;20017;-96
2023/01/15 13:15:14;;;;;;;12.70;3.05;;;;;;;-146.73;100.00;56421.06;6181120;23;20036;-95
2023/01/15 13:18:20;;;;;;;15.43;3.47;;;;;;;-146.73;100.00;56421.06;6158072;23;20013;-96
2023/01/15 13:21:40;;;;;;;16.67;4.13;;;;;;;-146.73;100.00;56421.06;6159688;23;20419;-95
2023/01/15 13:24:40;;;;;;;10.88;3.25;;;;;;;-146.73;100.00;56421.06;6151380;23;20018;-94